sensor_id;sensor_type;location;lat;lon;timestamp;pressure;altitude;pressure_sealevel;temperature;humidity
63808;BME280;49961;43.970;22.868;2023-03-07T00:00:31;100580.56;;;9.77;100.00
63808;BME280;49961;43.970;22.868;2023-03-07T00:01:32;100569.66;;;9.70;100.00
63808;BME280;49961;43.970;22.868;2023-03-07T00:02:33;100627.47;;;10.04;100.00
63808;BME280;49961;43.970;22.868;2023-03-07T00:03:34;100629.78;;;10.05;100.00
63808;BME280;49961;43.970;22.868;2023-03-07T00:04:35;100628.25;;;10.04;100.00
63808;BME280;49961;43.970;22.868;2023-03-07T00:05:36;100628.63;;;10.06;100.00
63808;BME280;49961;43.970;22.868;2023-03-07T00:06:36;100463.88;;;9.08;100.00
63808;BME280;49961;43.970;22.868;2023-03-07T00:07:37;100624.13;;;10.12;100.00
63808;BME280;49961;43.970;22.868;2023-03-07T00:08:37;100621.78;;;10.11;100.00
63808;BME280;49961;43.970;22.868;2023-03-07T00:09:38;100616.59;;;10.13;100.00
63808;BME280;49961;43.970;22.868;2023-03-07T00:10:38;100615.09;;;10.08;100.00
63808;BME280;49961;43.970;22.868;2023-03-07T00:11:39;100617.38;;;10.13;100.00
63808;BME280;49961;43.970;22.868;2023-03-07T00:12:39;100618.59;;;10.12;100.00
63808;BME280;49961;43.970;22.868;2023-03-07T00:13:40;100620.13;;;10.13;100.00
63808;BME280;49961;43.970;22.868;2023-03-07T00:14:40;100606.50;;;10.03;100.00
63808;BME280;49961;43.970;22.868;2023-03-07T00:15:41;100612.34;;;10.08;100.00
63808;BME280;49961;43.970;22.868;2023-03-07T00:16:41;100606.47;;;10.06;100.00
63808;BME280;49961;43.970;22.868;2023-03-07T00:17:42;100609.56;;;10.08;100.00
63808;BME280;49961;43.970;22.868;2023-03-07T00:18:43;100511.00;;;9.40;100.00
63808;BME280;49961;43.970;22.868;2023-03-07T00:19:43;100610.88;;;10.04;100.00
63808;BME280;49961;43.970;22.868;2023-03-07T00:20:44;100608.50;;;10.02;100.00
63808;BME280;49961;43.970;22.868;2023-03-07T00:21:44;100600.06;;;9.90;100.00
63808;BME280;49961;43.970;22.868;2023-03-07T00:22:45;100595.75;;;9.89;100.00
63808;BME280;49961;43.970;22.868;2023-03-07T00:23:46;100594.53;;;9.90;100.00
63808;BME280;49961;43.970;22.868;2023-03-07T00:24:47;100598.44;;;9.92;100.00
63808;BME280;49961;43.970;22.868;2023-03-07T00:26:04;100578.59;;;9.78;100.00
63808;BME280;49961;43.970;22.868;2023-03-07T00:27:05;100600.31;;;9.95;100.00
63808;BME280;49961;43.970;22.868;2023-03-07T00:28:06;100596.78;;;9.95;100.00
63808;BME280;49961;43.970;22.868;2023-03-07T00:29:08;100595.03;;;9.85;100.00
63808;BME280;49961;43.970;22.868;2023-03-07T00:30:09;100603.28;;;9.69;100.00
63808;BME280;49961;43.970;22.868;2023-03-07T00:31:11;100598.88;;;9.71;100.00
63808;BME280;49961;43.970;22.868;2023-03-07T00:32:12;100602.38;;;9.75;100.00
63808;BME280;49961;43.970;22.868;2023-03-07T00:33:12;100440.84;;;8.75;100.00
63808;BME280;49961;43.970;22.868;2023-03-07T00:34:12;100603.84;;;9.80;100.00
63808;BME280;49961;43.970;22.868;2023-03-07T00:35:13;100578.22;;;9.76;100.00
63808;BME280;49961;43.970;22.868;2023-03-07T00:36:19;100590.34;;;9.82;100.00
63808;BME280;49961;43.970;22.868;2023-03-07T00:37:20;100583.97;;;9.85;100.00
63808;BME280;49961;43.970;22.868;2023-03-07T00:38:21;100585.94;;;9.84;100.00
63808;BME280;49961;43.970;22.868;2023-03-07T00:39:22;100583.59;;;9.83;100.00
63808;BME280;49961;43.970;22.868;2023-03-07T00:40:22;100581.19;;;9.85;100.00
63808;BME280;49961;43.970;22.868;2023-03-07T00:41:26;100579.19;;;9.85;100.00
63808;BME280;49961;43.970;22.868;2023-03-07T00:42:27;100578.44;;;9.85;100.00
63808;BME280;49961;43.970;22.868;2023-03-07T00:43:28;100567.56;;;9.74;100.00
63808;BME280;49961;43.970;22.868;2023-03-07T00:44:28;100584.38;;;9.83;100.00
63808;BME280;49961;43.970;22.868;2023-03-07T00:45:29;100571.84;;;9.79;100.00
63808;BME280;49961;43.970;22.868;2023-03-07T00:46:29;100581.63;;;9.83;100.00
63808;BME280;49961;43.970;22.868;2023-03-07T00:47:30;100580.06;;;9.82;100.00
63808;BME280;49961;43.970;22.868;2023-03-07T00:48:33;100575.75;;;9.81;100.00
63808;BME280;49961;43.970;22.868;2023-03-07T00:49:33;100575.38;;;9.79;100.00
63808;BME280;49961;43.970;22.868;2023-03-07T00:50:34;100574.59;;;9.79;100.00
63808;BME280;49961;43.970;22.868;2023-03-07T00:51:34;100577.72;;;9.81;100.00
63808;BME280;49961;43.970;22.868;2023-03-07T00:52:35;100576.50;;;9.82;100.00
63808;BME280;49961;43.970;22.868;2023-03-07T00:53:36;100574.53;;;9.82;100.00
63808;BME280;49961;43.970;22.868;2023-03-07T00:54:37;100569.00;;;9.82;100.00
63808;BME280;49961;43.970;22.868;2023-03-07T00:55:37;100559.28;;;9.74;100.00
63808;BME280;49961;43.970;22.868;2023-03-07T00:56:38;100573.22;;;9.87;100.00
63808;BME280;49961;43.970;22.868;2023-03-07T00:57:38;100558.34;;;9.81;100.00
63808;BME280;49961;43.970;22.868;2023-03-07T00:58:39;100579.47;;;9.91;100.00
63808;BME280;49961;43.970;22.868;2023-03-07T00:59:39;100577.91;;;9.90;100.00
63808;BME280;49961;43.970;22.868;2023-03-07T01:00:39;100578.25;;;9.92;100.00
63808;BME280;49961;43.970;22.868;2023-03-07T01:01:40;100567.28;;;9.88;100.00
63808;BME280;49961;43.970;22.868;2023-03-07T01:02:40;100577.13;;;9.89;100.00
63808;BME280;49961;43.970;22.868;2023-03-07T01:03:41;100433.34;;;8.95;100.00
63808;BME280;49961;43.970;22.868;2023-03-07T01:04:41;100572.09;;;9.84;100.00
63808;BME280;49961;43.970;22.868;2023-03-07T01:05:42;100567.78;;;9.83;100.00
63808;BME280;49961;43.970;22.868;2023-03-07T01:06:42;100569.41;;;9.81;100.00
63808;BME280;49961;43.970;22.868;2023-03-07T01:07:44;100563.13;;;9.80;100.00
63808;BME280;49961;43.970;22.868;2023-03-07T01:08:44;100501.16;;;9.39;100.00
63808;BME280;49961;43.970;22.868;2023-03-07T01:09:49;100547.16;;;9.68;100.00
63808;BME280;49961;43.970;22.868;2023-03-07T01:10:50;100562.31;;;9.80;100.00
63808;BME280;49961;43.970;22.868;2023-03-07T01:11:50;100567.84;;;9.80;100.00
63808;BME280;49961;43.970;22.868;2023-03-07T01:12:52;100562.31;;;9.80;100.00
63808;BME280;49961;43.970;22.868;2023-03-07T01:14:00;100560.34;;;9.80;100.00
63808;BME280;49961;43.970;22.868;2023-03-07T01:15:01;100560.78;;;9.79;100.00
63808;BME280;49961;43.970;22.868;2023-03-07T01:17:13;100560.78;;;9.79;100.00
63808;BME280;49961;43.970;22.868;2023-03-07T01:18:14;100562.31;;;9.80;100.00
63808;BME280;49961;43.970;22.868;2023-03-07T01:19:14;100533.41;;;9.65;100.00
63808;BME280;49961;43.970;22.868;2023-03-07T01:20:15;100558.84;;;9.76;100.00
63808;BME280;49961;43.970;22.868;2023-03-07T01:21:23;100534.09;;;9.49;100.00
63808;BME280;49961;43.970;22.868;2023-03-07T01:22:24;100534.75;;;9.57;100.00
63808;BME280;49961;43.970;22.868;2023-03-07T01:23:24;100354.06;;;8.34;100.00
63808;BME280;49961;43.970;22.868;2023-03-07T01:24:25;100539.72;;;9.46;100.00
63808;BME280;49961;43.970;22.868;2023-03-07T01:25:26;100569.53;;;9.58;100.00
63808;BME280;49961;43.970;22.868;2023-03-07T01:26:30;100573.06;;;9.58;100.00
63808;BME280;49961;43.970;22.868;2023-03-07T01:27:31;100568.09;;;9.50;100.00
63808;BME280;49961;43.970;22.868;2023-03-07T01:28:31;100564.53;;;9.49;100.00
63808;BME280;49961;43.970;22.868;2023-03-07T01:29:32;100566.13;;;9.50;100.00
63808;BME280;49961;43.970;22.868;2023-03-07T01:30:33;100431.69;;;8.59;100.00
63808;BME280;49961;43.970;22.868;2023-03-07T01:31:33;100554.34;;;9.27;100.00
63808;BME280;49961;43.970;22.868;2023-03-07T01:32:34;100556.09;;;9.17;100.00
63808;BME280;49961;43.970;22.868;2023-03-07T01:33:34;100546.25;;;9.16;100.00
63808;BME280;49961;43.970;22.868;2023-03-07T01:34:35;100552.56;;;9.17;100.00
63808;BME280;49961;43.970;22.868;2023-03-07T01:35:37;100350.63;;;7.84;100.00
63808;BME280;49961;43.970;22.868;2023-03-07T01:36:38;100548.22;;;9.16;100.00
63808;BME280;49961;43.970;22.868;2023-03-07T01:37:38;100544.31;;;9.13;100.00
63808;BME280;49961;43.970;22.868;2023-03-07T01:38:39;100550.22;;;9.15;100.00
63808;BME280;49961;43.970;22.868;2023-03-07T01:39:39;100522.78;;;9.05;100.00
63808;BME280;49961;43.970;22.868;2023-03-07T01:40:39;100543.13;;;9.14;100.00
63808;BME280;49961;43.970;22.868;2023-03-07T01:41:40;100438.63;;;8.47;100.00
63808;BME280;49961;43.970;22.868;2023-03-07T01:42:41;100535.59;;;9.15;100.00
63808;BME280;49961;43.970;22.868;2023-03-07T01:43:41;100537.53;;;9.18;100.00
63808;BME280;49961;43.970;22.868;2023-03-07T01:45:06;100546.59;;;9.18;100.00
63808;BME280;49961;43.970;22.868;2023-03-07T01:47:16;100433.94;;;8.44;100.00
63808;BME280;49961;43.970;22.868;2023-03-07T01:48:17;100548.28;;;9.12;100.00
63808;BME280;49961;43.970;22.868;2023-03-07T01:49:41;100551.00;;;9.16;100.00
63808;BME280;49961;43.970;22.868;2023-03-07T01:50:45;100544.63;;;9.19;100.00
63808;BME280;49961;43.970;22.868;2023-03-07T01:51:49;100547.31;;;9.22;100.00
63808;BME280;49961;43.970;22.868;2023-03-07T01:52:53;100545.75;;;9.21;100.00
63808;BME280;49961;43.970;22.868;2023-03-07T01:53:57;100547.38;;;9.19;100.00
63808;BME280;49961;43.970;22.868;2023-03-07T01:55:36;100545.34;;;9.23;100.00
63808;BME280;49961;43.970;22.868;2023-03-07T01:56:37;100438.75;;;8.60;100.00
63808;BME280;49961;43.970;22.868;2023-03-07T01:57:39;100535.00;;;9.27;100.00
63808;BME280;49961;43.970;22.868;2023-03-07T01:58:42;100540.53;;;9.27;100.00
63808;BME280;49961;43.970;22.868;2023-03-07T01:59:45;100535.75;;;9.27;100.00
63808;BME280;49961;43.970;22.868;2023-03-07T02:00:46;100530.31;;;9.24;100.00
63808;BME280;49961;43.970;22.868;2023-03-07T02:01:47;100532.91;;;9.31;100.00
63808;BME280;49961;43.970;22.868;2023-03-07T02:02:53;100540.03;;;9.32;100.00
63808;BME280;49961;43.970;22.868;2023-03-07T02:04:04;100504.44;;;9.14;100.00
63808;BME280;49961;43.970;22.868;2023-03-07T02:05:20;100537.19;;;9.35;100.00
63808;BME280;49961;43.970;22.868;2023-03-07T02:06:24;100533.13;;;9.40;100.00
63808;BME280;49961;43.970;22.868;2023-03-07T02:07:32;100528.03;;;9.38;100.00
63808;BME280;49961;43.970;22.868;2023-03-07T02:08:36;100522.72;;;9.28;100.00
63808;BME280;49961;43.970;22.868;2023-03-07T02:09:37;100340.53;;;8.16;100.00
63808;BME280;49961;43.970;22.868;2023-03-07T02:10:39;100481.38;;;9.01;100.00
63808;BME280;49961;43.970;22.868;2023-03-07T02:11:42;100536.81;;;9.33;100.00
63808;BME280;49961;43.970;22.868;2023-03-07T02:12:44;100404.34;;;8.45;100.00
63808;BME280;49961;43.970;22.868;2023-03-07T02:13:44;100533.28;;;9.33;100.00
63808;BME280;49961;43.970;22.868;2023-03-07T02:14:46;100526.25;;;9.28;100.00
63808;BME280;49961;43.970;22.868;2023-03-07T02:15:48;100516.41;;;9.08;100.00
63808;BME280;49961;43.970;22.868;2023-03-07T02:16:51;100535.50;;;9.22;100.00
63808;BME280;49961;43.970;22.868;2023-03-07T02:17:51;100531.50;;;9.23;100.00
63808;BME280;49961;43.970;22.868;2023-03-07T02:18:52;100417.69;;;8.50;100.00
63808;BME280;49961;43.970;22.868;2023-03-07T02:21:31;100533.06;;;9.24;100.00
63808;BME280;49961;43.970;22.868;2023-03-07T02:22:36;100530.31;;;9.24;100.00
63808;BME280;49961;43.970;22.868;2023-03-07T02:23:40;100530.00;;;9.18;100.00
63808;BME280;49961;43.970;22.868;2023-03-07T02:25:09;100437.19;;;8.39;100.00
63808;BME280;49961;43.970;22.868;2023-03-07T02:27:36;100536.41;;;8.96;100.00
63808;BME280;49961;43.970;22.868;2023-03-07T02:28:36;100545.03;;;8.98;100.00
63808;BME280;49961;43.970;22.868;2023-03-07T02:29:39;100535.44;;;9.02;100.00
63808;BME280;49961;43.970;22.868;2023-03-07T02:30:55;100533.47;;;9.03;100.00
63808;BME280;49961;43.970;22.868;2023-03-07T02:31:56;100519.03;;;8.95;100.00
63808;BME280;49961;43.970;22.868;2023-03-07T02:32:56;100531.44;;;9.07;100.00
63808;BME280;49961;43.970;22.868;2023-03-07T02:33:57;100476.75;;;8.75;100.00
63808;BME280;49961;43.970;22.868;2023-03-07T02:34:57;100532.56;;;9.09;100.00
63808;BME280;49961;43.970;22.868;2023-03-07T02:36:02;100543.19;;;9.11;100.00
63808;BME280;49961;43.970;22.868;2023-03-07T02:37:16;100397.38;;;8.14;100.00
63808;BME280;49961;43.970;22.868;2023-03-07T02:38:18;100547.31;;;9.03;100.00
63808;BME280;49961;43.970;22.868;2023-03-07T02:39:19;100551.75;;;8.97;100.00
63808;BME280;49961;43.970;22.868;2023-03-07T02:40:23;100553.81;;;8.93;100.00
63808;BME280;49961;43.970;22.868;2023-03-07T02:41:28;100547.56;;;8.89;100.00
63808;BME280;49961;43.970;22.868;2023-03-07T02:42:30;100553.69;;;8.77;100.00
63808;BME280;49961;43.970;22.868;2023-03-07T02:43:32;100434.28;;;8.00;100.00
63808;BME280;49961;43.970;22.868;2023-03-07T02:44:32;100551.00;;;8.73;100.00
63808;BME280;49961;43.970;22.868;2023-03-07T02:45:33;100549.06;;;8.70;100.00
63808;BME280;49961;43.970;22.868;2023-03-07T02:46:33;100529.16;;;8.59;100.00
63808;BME280;49961;43.970;22.868;2023-03-07T02:47:34;100534.25;;;8.61;100.00
63808;BME280;49961;43.970;22.868;2023-03-07T02:48:34;100543.91;;;8.72;100.00
63808;BME280;49961;43.970;22.868;2023-03-07T02:49:34;100553.88;;;8.66;100.00
63808;BME280;49961;43.970;22.868;2023-03-07T02:50:35;100412.25;;;7.74;100.00
63808;BME280;49961;43.970;22.868;2023-03-07T02:51:36;100554.47;;;8.54;100.00
63808;BME280;49961;43.970;22.868;2023-03-07T02:52:36;100483.84;;;8.07;100.00
63808;BME280;49961;43.970;22.868;2023-03-07T02:53:37;100542.47;;;8.41;100.00
63808;BME280;49961;43.970;22.868;2023-03-07T02:54:38;100548.47;;;8.36;100.00
63808;BME280;49961;43.970;22.868;2023-03-07T02:55:38;100530.56;;;8.21;100.00
63808;BME280;49961;43.970;22.868;2023-03-07T02:56:39;100543.47;;;8.28;100.00
63808;BME280;49961;43.970;22.868;2023-03-07T02:57:39;100543.84;;;8.30;100.00
63808;BME280;49961;43.970;22.868;2023-03-07T02:58:40;100546.56;;;8.33;100.00
63808;BME280;49961;43.970;22.868;2023-03-07T02:59:40;100553.75;;;8.27;100.00
63808;BME280;49961;43.970;22.868;2023-03-07T03:00:41;100550.13;;;8.30;100.00
63808;BME280;49961;43.970;22.868;2023-03-07T03:01:42;100523.25;;;8.08;100.00
63808;BME280;49961;43.970;22.868;2023-03-07T03:02:42;100522.91;;;8.06;100.00
63808;BME280;49961;43.970;22.868;2023-03-07T03:03:43;100547.91;;;8.22;100.00
63808;BME280;49961;43.970;22.868;2023-03-07T03:04:43;100550.69;;;8.18;100.00
63808;BME280;49961;43.970;22.868;2023-03-07T03:05:44;100549.13;;;8.21;100.00
63808;BME280;49961;43.970;22.868;2023-03-07T03:06:44;100529.00;;;8.20;100.00
63808;BME280;49961;43.970;22.868;2023-03-07T03:07:45;100527.88;;;8.14;100.00
63808;BME280;49961;43.970;22.868;2023-03-07T03:08:45;100545.47;;;8.27;100.00
63808;BME280;49961;43.970;22.868;2023-03-07T03:09:45;100506.88;;;7.97;100.00
63808;BME280;49961;43.970;22.868;2023-03-07T03:10:51;100546.22;;;8.28;100.00
63808;BME280;49961;43.970;22.868;2023-03-07T03:11:51;100554.66;;;8.17;100.00
63808;BME280;49961;43.970;22.868;2023-03-07T03:12:52;100555.84;;;8.20;100.00
63808;BME280;49961;43.970;22.868;2023-03-07T03:13:52;100549.50;;;8.19;100.00
63808;BME280;49961;43.970;22.868;2023-03-07T03:14:53;100548.34;;;8.17;100.00
63808;BME280;49961;43.970;22.868;2023-03-07T03:15:54;100478.25;;;7.61;100.00
63808;BME280;49961;43.970;22.868;2023-03-07T03:16:55;100558.16;;;7.95;100.00
63808;BME280;49961;43.970;22.868;2023-03-07T03:17:56;100550.81;;;7.85;100.00
63808;BME280;49961;43.970;22.868;2023-03-07T03:18:56;100418.88;;;6.93;100.00
63808;BME280;49961;43.970;22.868;2023-03-07T03:19:57;100553.91;;;7.87;100.00
63808;BME280;49961;43.970;22.868;2023-03-07T03:20:57;100457.56;;;7.16;100.00
63808;BME280;49961;43.970;22.868;2023-03-07T03:21:58;100483.38;;;7.29;100.00
63808;BME280;49961;43.970;22.868;2023-03-07T03:22:59;100562.47;;;7.66;100.00
63808;BME280;49961;43.970;22.868;2023-03-07T03:24:06;100545.94;;;7.66;100.00
63808;BME280;49961;43.970;22.868;2023-03-07T03:25:10;100557.75;;;7.66;100.00
63808;BME280;49961;43.970;22.868;2023-03-07T03:26:11;100576.72;;;7.61;100.00
63808;BME280;49961;43.970;22.868;2023-03-07T03:27:11;100564.09;;;7.63;100.00
63808;BME280;49961;43.970;22.868;2023-03-07T03:28:11;100560.09;;;7.68;100.00
63808;BME280;49961;43.970;22.868;2023-03-07T03:29:12;100540.19;;;7.53;100.00
63808;BME280;49961;43.970;22.868;2023-03-07T03:30:13;100535.19;;;7.45;100.00
63808;BME280;49961;43.970;22.868;2023-03-07T03:31:14;100567.13;;;7.72;100.00
63808;BME280;49961;43.970;22.868;2023-03-07T03:32:15;100582.06;;;7.75;100.00
63808;BME280;49961;43.970;22.868;2023-03-07T03:33:15;100565.97;;;7.70;100.00
63808;BME280;49961;43.970;22.868;2023-03-07T03:34:16;100580.53;;;7.70;100.00
63808;BME280;49961;43.970;22.868;2023-03-07T03:35:16;100553.53;;;7.58;100.00
63808;BME280;49961;43.970;22.868;2023-03-07T03:36:17;100554.16;;;7.69;100.00
63808;BME280;49961;43.970;22.868;2023-03-07T03:37:18;100563.91;;;7.77;100.00
63808;BME280;49961;43.970;22.868;2023-03-07T03:38:18;100562.38;;;7.73;100.00
63808;BME280;49961;43.970;22.868;2023-03-07T03:39:19;100516.75;;;7.38;100.00
63808;BME280;49961;43.970;22.868;2023-03-07T03:40:19;100565.56;;;7.71;100.00
63808;BME280;49961;43.970;22.868;2023-03-07T03:41:20;100557.66;;;7.73;100.00
63808;BME280;49961;43.970;22.868;2023-03-07T03:42:20;100419.94;;;6.73;100.00
63808;BME280;49961;43.970;22.868;2023-03-07T03:43:21;100556.91;;;7.69;100.00
63808;BME280;49961;43.970;22.868;2023-03-07T03:44:22;100558.16;;;7.65;100.00
63808;BME280;49961;43.970;22.868;2023-03-07T03:45:22;100563.28;;;7.66;100.00
63808;BME280;49961;43.970;22.868;2023-03-07T03:46:22;100559.72;;;7.66;100.00
63808;BME280;49961;43.970;22.868;2023-03-07T03:47:23;100557.72;;;7.70;100.00
63808;BME280;49961;43.970;22.868;2023-03-07T03:48:23;100560.00;;;7.75;100.00
63808;BME280;49961;43.970;22.868;2023-03-07T03:49:24;100559.84;;;7.85;100.00
63808;BME280;49961;43.970;22.868;2023-03-07T03:50:25;100362.28;;;6.59;100.00
63808;BME280;49961;43.970;22.868;2023-03-07T03:51:25;100559.84;;;7.85;100.00
63808;BME280;49961;43.970;22.868;2023-03-07T03:52:26;100556.72;;;7.83;100.00
63808;BME280;49961;43.970;22.868;2023-03-07T03:53:26;100566.22;;;7.82;100.00
63808;BME280;49961;43.970;22.868;2023-03-07T03:54:26;100563.44;;;7.82;100.00
63808;BME280;49961;43.970;22.868;2023-03-07T03:55:27;100369.78;;;6.55;100.00
63808;BME280;49961;43.970;22.868;2023-03-07T03:56:27;100570.13;;;7.85;100.00
63808;BME280;49961;43.970;22.868;2023-03-07T03:57:28;100469.34;;;7.20;100.00
63808;BME280;49961;43.970;22.868;2023-03-07T03:58:29;100567.44;;;7.78;100.00
63808;BME280;49961;43.970;22.868;2023-03-07T03:59:29;100566.72;;;7.74;100.00
63808;BME280;49961;43.970;22.868;2023-03-07T04:00:30;100584.44;;;7.73;100.00
63808;BME280;49961;43.970;22.868;2023-03-07T04:01:30;100571.53;;;7.66;100.00
63808;BME280;49961;43.970;22.868;2023-03-07T04:02:31;100577.13;;;7.63;100.00
63808;BME280;49961;43.970;22.868;2023-03-07T04:03:33;100577.81;;;7.67;100.00
63808;BME280;49961;43.970;22.868;2023-03-07T04:04:34;100577.41;;;7.68;100.00
63808;BME280;49961;43.970;22.868;2023-03-07T04:05:35;100572.69;;;7.69;100.00
63808;BME280;49961;43.970;22.868;2023-03-07T04:06:36;100572.75;;;7.65;100.00
63808;BME280;49961;43.970;22.868;2023-03-07T04:07:36;100501.66;;;7.16;100.00
63808;BME280;49961;43.970;22.868;2023-03-07T04:08:37;100583.72;;;7.69;100.00
63808;BME280;49961;43.970;22.868;2023-03-07T04:09:38;100541.84;;;7.47;100.00
63808;BME280;49961;43.970;22.868;2023-03-07T04:10:38;100584.88;;;7.71;100.00
63808;BME280;49961;43.970;22.868;2023-03-07T04:11:39;100581.66;;;7.76;100.00
63808;BME280;49961;43.970;22.868;2023-03-07T04:12:40;100588.28;;;7.82;100.00
63808;BME280;49961;43.970;22.868;2023-03-07T04:13:40;100584.31;;;7.83;100.00
63808;BME280;49961;43.970;22.868;2023-03-07T04:14:41;100584.25;;;7.87;100.00
63808;BME280;49961;43.970;22.868;2023-03-07T04:15:41;100578.66;;;7.94;100.00
63808;BME280;49961;43.970;22.868;2023-03-07T04:16:42;100584.13;;;7.97;100.00
63808;BME280;49961;43.970;22.868;2023-03-07T04:17:42;100586.88;;;7.97;100.00
63808;BME280;49961;43.970;22.868;2023-03-07T04:18:43;100583.41;;;7.93;100.00
63808;BME280;49961;43.970;22.868;2023-03-07T04:19:43;100588.56;;;7.91;100.00
63808;BME280;49961;43.970;22.868;2023-03-07T04:20:44;100580.63;;;7.93;100.00
63808;BME280;49961;43.970;22.868;2023-03-07T04:21:44;100584.13;;;7.97;100.00
63808;BME280;49961;43.970;22.868;2023-03-07T04:22:45;100451.72;;;7.14;100.00
63808;BME280;49961;43.970;22.868;2023-03-07T04:23:45;100584.50;;;7.99;100.00
63808;BME280;49961;43.970;22.868;2023-03-07T04:24:48;100571.16;;;7.94;100.00
63808;BME280;49961;43.970;22.868;2023-03-07T04:25:50;100579.81;;;7.96;100.00
63808;BME280;49961;43.970;22.868;2023-03-07T04:26:51;100581.16;;;7.85;100.00
63808;BME280;49961;43.970;22.868;2023-03-07T04:27:51;100584.44;;;7.73;100.00
63808;BME280;49961;43.970;22.868;2023-03-07T04:28:52;100402.88;;;6.51;100.00
63808;BME280;49961;43.970;22.868;2023-03-07T04:29:52;100573.91;;;7.64;100.00
63808;BME280;49961;43.970;22.868;2023-03-07T04:30:53;100539.53;;;7.42;100.00
63808;BME280;49961;43.970;22.868;2023-03-07T04:31:55;100568.09;;;7.59;100.00
63808;BME280;49961;43.970;22.868;2023-03-07T04:32:56;100578.22;;;7.69;100.00
63808;BME280;49961;43.970;22.868;2023-03-07T04:33:56;100585.34;;;7.66;100.00
63808;BME280;49961;43.970;22.868;2023-03-07T04:34:57;100583.78;;;7.65;100.00
63808;BME280;49961;43.970;22.868;2023-03-07T04:35:57;100582.19;;;7.68;100.00
63808;BME280;49961;43.970;22.868;2023-03-07T04:36:57;100583.34;;;7.67;100.00
63808;BME280;49961;43.970;22.868;2023-03-07T04:37:58;100476.03;;;6.89;100.00
63808;BME280;49961;43.970;22.868;2023-03-07T04:38:58;100580.72;;;7.56;100.00
63808;BME280;49961;43.970;22.868;2023-03-07T04:39:59;100581.56;;;7.53;100.00
63808;BME280;49961;43.970;22.868;2023-03-07T04:40:59;100583.09;;;7.54;100.00
63808;BME280;49961;43.970;22.868;2023-03-07T04:42:00;100587.63;;;7.41;100.00
63808;BME280;49961;43.970;22.868;2023-03-07T04:43:01;100392.94;;;6.24;100.00
63808;BME280;49961;43.970;22.868;2023-03-07T04:44:02;100588.31;;;7.49;100.00
63808;BME280;49961;43.970;22.868;2023-03-07T04:45:03;100596.19;;;7.50;100.00
63808;BME280;49961;43.970;22.868;2023-03-07T04:46:04;100596.13;;;7.54;100.00
63808;BME280;49961;43.970;22.868;2023-03-07T04:47:04;100600.09;;;7.53;100.00
63808;BME280;49961;43.970;22.868;2023-03-07T04:48:05;100603.59;;;7.53;100.00
63808;BME280;49961;43.970;22.868;2023-03-07T04:49:06;100590.66;;;7.50;100.00
63808;BME280;49961;43.970;22.868;2023-03-07T04:50:06;100468.41;;;6.67;100.00
63808;BME280;49961;43.970;22.868;2023-03-07T04:51:08;100592.69;;;7.46;100.00
63808;BME280;49961;43.970;22.868;2023-03-07T04:52:08;100600.16;;;7.46;100.00
63808;BME280;49961;43.970;22.868;2023-03-07T04:53:09;100596.25;;;7.43;100.00
63808;BME280;49961;43.970;22.868;2023-03-07T04:54:10;100624.19;;;7.45;100.00
63808;BME280;49961;43.970;22.868;2023-03-07T04:55:11;100593.88;;;7.45;100.00
63808;BME280;49961;43.970;22.868;2023-03-07T04:56:12;100599.44;;;7.38;100.00
63808;BME280;49961;43.970;22.868;2023-03-07T04:57:14;100598.63;;;7.41;100.00
63808;BME280;49961;43.970;22.868;2023-03-07T04:58:14;100590.03;;;7.36;100.00
63808;BME280;49961;43.970;22.868;2023-03-07T04:59:15;100604.56;;;7.40;100.00
63808;BME280;49961;43.970;22.868;2023-03-07T05:00:16;100597.09;;;7.40;100.00
63808;BME280;49961;43.970;22.868;2023-03-07T05:01:16;100584.19;;;7.30;100.00
63808;BME280;49961;43.970;22.868;2023-03-07T05:02:17;100603.00;;;7.39;100.00
63808;BME280;49961;43.970;22.868;2023-03-07T05:03:17;100601.84;;;7.36;100.00
63808;BME280;49961;43.970;22.868;2023-03-07T05:04:18;100601.44;;;7.38;100.00
63808;BME280;49961;43.970;22.868;2023-03-07T05:05:18;100600.25;;;7.39;100.00
63808;BME280;49961;43.970;22.868;2023-03-07T05:06:19;100592.06;;;7.28;100.00
63808;BME280;49961;43.970;22.868;2023-03-07T05:07:19;100607.31;;;7.40;100.00
63808;BME280;49961;43.970;22.868;2023-03-07T05:08:21;100608.09;;;7.40;100.00
63808;BME280;49961;43.970;22.868;2023-03-07T05:09:21;100617.53;;;7.43;100.00
63808;BME280;49961;43.970;22.868;2023-03-07T05:10:22;100597.94;;;7.34;100.00
63808;BME280;49961;43.970;22.868;2023-03-07T05:11:22;100618.59;;;7.52;100.00
63808;BME280;49961;43.970;22.868;2023-03-07T05:12:23;100620.16;;;7.53;100.00
63808;BME280;49961;43.970;22.868;2023-03-07T05:13:24;100616.63;;;7.53;100.00
63808;BME280;49961;43.970;22.868;2023-03-07T05:14:24;100624.47;;;7.54;100.00
63808;BME280;49961;43.970;22.868;2023-03-07T05:15:25;100542.41;;;7.02;100.00
63808;BME280;49961;43.970;22.868;2023-03-07T05:16:25;100620.19;;;7.50;100.00
63808;BME280;49961;43.970;22.868;2023-03-07T05:17:26;100621.44;;;7.45;100.00
63808;BME280;49961;43.970;22.868;2023-03-07T05:18:28;100484.25;;;6.52;100.00
63808;BME280;49961;43.970;22.868;2023-03-07T05:19:29;100449.44;;;6.35;100.00
63808;BME280;49961;43.970;22.868;2023-03-07T05:20:29;100629.63;;;7.52;100.00
63808;BME280;49961;43.970;22.868;2023-03-07T05:21:30;100626.06;;;7.52;100.00
63808;BME280;49961;43.970;22.868;2023-03-07T05:22:30;100616.28;;;7.47;100.00
63808;BME280;49961;43.970;22.868;2023-03-07T05:23:31;100629.53;;;7.59;100.00